Time;durP1;ratioP1;P1;durP2;ratioP2;P2;SDS_P1;SDS_P2;PMS_P1;PMS_P2;Temp;Humidity;BMP_temperature;BMP_pressure;BME280_temperature;BME280_humidity;BME280_pressure;Samples;Min_cycle;Max_cycle;Signal;HPM_P1;HPM_P2
2023/04/27 00:00:22;;;;;;;5.97;2.88;;;7.80;78.10;;;;;;5113495;28;20046;-74
2023/04/27 00:02:48;;;;;;;5.60;2.88;;;7.80;78.10;;;;;;5095592;28;20036;-74
2023/04/27 00:05:13;;;;;;;7.00;2.75;;;7.80;78.10;;;;;;5113439;28;20020;-74
2023/04/27 00:07:40;;;;;;;6.90;2.90;;;7.80;78.10;;;;;;5113408;28;20082;-74
2023/04/27 00:10:06;;;;;;;7.93;3.33;;;7.70;78.00;;;;;;5095347;28;20040;-74
2023/04/27 00:12:32;;;;;;;5.50;2.50;;;7.70;77.90;;;;;;5113308;28;20100;-74
2023/04/27 00:14:58;;;;;;;9.68;2.95;;;7.60;77.80;;;;;;5112274;28;20353;-74
2023/04/27 00:17:23;;;;;;;6.75;3.08;;;7.60;77.90;;;;;;5112490;28;20028;-74
2023/04/27 00:19:49;;;;;;;6.28;2.85;;;7.50;78.10;;;;;;5113457;28;20043;-74
2023/04/27 00:22:14;;;;;;;5.88;2.80;;;7.50;78.30;;;;;;5113442;28;20024;-74
2023/04/27 00:24:40;;;;;;;5.60;2.78;;;7.50;78.40;;;;;;5113289;28;20471;-74
2023/04/27 00:27:06;;;;;;;5.90;2.50;;;7.40;78.50;;;;;;5112170;28;20032;-74
2023/04/27 00:29:32;;;;;;;6.93;2.50;;;7.40;78.60;;;;;;5113224;28;20063;-74
2023/04/27 00:31:57;;;;;;;4.80;2.88;;;7.40;78.70;;;;;;5113129;28;20024;-74
2023/04/27 00:34:23;;;;;;;5.22;2.22;;;7.30;78.50;;;;;;5113083;28;20111;-73
2023/04/27 00:36:49;;;;;;;6.40;2.60;;;7.30;78.40;;;;;;5112334;28;20016;-74
2023/04/27 00:39:15;;;;;;;4.93;2.58;;;7.20;78.60;;;;;;5112086;28;20036;-74
2023/04/27 00:41:41;;;;;;;5.07;2.50;;;7.10;79.00;;;;;;5112302;28;20024;-74
2023/04/27 00:44:07;;;;;;;5.35;2.38;;;7.10;79.10;;;;;;5113128;28;20044;-74
2023/04/27 00:46:33;;;;;;;6.85;3.00;;;7.10;79.10;;;;;;5116952;28;20081;-74
2023/04/27 00:49:00;;;;;;;5.38;2.67;;;7.10;79.10;;;;;;5117083;28;20426;-73
2023/04/27 00:51:29;;;;;;;7.70;3.05;;;7.20;79.10;;;;;;5116967;28;20047;-74
2023/04/27 00:53:56;;;;;;;8.55;2.85;;;7.20;79.10;;;;;;5116938;28;20028;-74
2023/04/27 00:56:22;;;;;;;5.72;2.35;;;7.20;79.00;;;;;;5116868;28;20024;-73
2023/04/27 00:58:48;;;;;;;5.38;2.60;;;7.10;79.00;;;;;;5116823;28;20032;-74
2023/04/27 01:01:14;;;;;;;5.30;2.38;;;7.10;78.80;;;;;;5116808;28;20027;-74
2023/04/27 01:03:40;;;;;;;7.18;2.92;;;7.00;79.00;;;;;;5115870;28;20032;-74
2023/04/27 01:06:07;;;;;;;5.00;2.75;;;7.00;79.30;;;;;;5099159;28;20070;-74
2023/04/27 01:08:33;;;;;;;6.68;2.47;;;6.90;79.50;;;;;;5115724;28;20040;-74
2023/04/27 01:10:58;;;;;;;7.88;3.10;;;6.90;79.50;;;;;;5116226;28;20040;-74
2023/04/27 01:13:24;;;;;;;6.22;2.70;;;7.00;79.40;;;;;;5116545;28;20492;-74
2023/04/27 01:15:49;;;;;;;5.32;2.72;;;7.00;79.30;;;;;;5115539;28;20028;-74
2023/04/27 01:18:15;;;;;;;9.18;3.38;;;7.00;79.20;;;;;;5116438;28;20024;-74
2023/04/27 01:20:42;;;;;;;5.68;2.70;;;6.90;79.10;;;;;;5116412;28;20036;-74
2023/04/27 01:23:07;;;;;;;5.35;2.80;;;6.90;79.10;;;;;;5116541;28;20024;-74
2023/04/27 01:25:33;;;;;;;4.82;2.60;;;6.90;79.10;;;;;;5116309;28;20028;-74
2023/04/27 01:27:58;;;;;;;7.07;2.70;;;6.80;79.00;;;;;;5115452;28;20039;-74
2023/04/27 01:30:27;;;;;;;5.07;2.92;;;6.80;79.10;;;;;;5116127;28;20055;-74
2023/04/27 01:32:52;;;;;;;5.50;2.42;;;6.80;79.30;;;;;;5116309;28;20023;-74
2023/04/27 01:35:18;;;;;;;9.95;3.50;;;6.70;79.50;;;;;;5115116;28;20020;-74
2023/04/27 01:37:44;;;;;;;5.57;2.85;;;6.60;79.90;;;;;;5115114;28;20538;-74
2023/04/27 01:40:10;;;;;;;5.95;2.83;;;6.40;80.30;;;;;;5116039;28;20107;-74
2023/04/27 01:42:36;;;;;;;6.35;2.72;;;6.50;80.60;;;;;;5116029;28;20050;-74
2023/04/27 01:45:02;;;;;;;4.65;2.60;;;6.50;80.60;;;;;;5115962;28;20020;-74
2023/04/27 01:47:28;;;;;;;4.38;2.45;;;6.60;80.60;;;;;;5114959;28;20544;-74
2023/04/27 01:49:54;;;;;;;4.53;2.15;;;6.60;80.60;;;;;;5115975;28;20051;-74
2023/04/27 01:52:19;;;;;;;5.55;2.70;;;6.60;80.50;;;;;;5115872;28;20032;-73
2023/04/27 01:54:45;;;;;;;8.82;3.33;;;6.50;80.50;;;;;;5115741;28;20020;-74
2023/04/27 01:57:10;;;;;;;6.38;2.83;;;6.50;80.60;;;;;;5113644;28;20483;-74
2023/04/27 01:59:36;;;;;;;5.82;2.92;;;6.50;80.60;;;;;;5115672;28;20032;-74
2023/04/27 02:02:02;;;;;;;5.45;2.80;;;6.50;80.50;;;;;;5115718;28;20054;-74
2023/04/27 02:04:27;;;;;;;6.35;2.85;;;6.50;80.60;;;;;;5114674;28;20032;-74
2023/04/27 02:06:53;;;;;;;6.45;2.78;;;6.40;80.60;;;;;;5115652;28;20033;-73
2023/04/27 02:09:18;;;;;;;7.55;3.35;;;6.40;80.70;;;;;;5115630;28;20038;-74
2023/04/27 02:11:44;;;;;;;7.15;2.90;;;6.40;81.60;;;;;;5115196;28;20052;-74
2023/04/27 02:14:09;;;;;;;7.47;3.53;;;6.30;80.80;;;;;;5115358;28;20020;-74
2023/04/27 02:16:35;;;;;;;5.22;2.70;;;6.30;80.90;;;;;;5115326;28;20074;-74
2023/04/27 02:19:02;;;;;;;9.25;3.40;;;6.30;80.80;;;;;;5114366;28;20024;-74
2023/04/27 02:21:28;;;;;;;5.28;2.88;;;6.30;81.00;;;;;;5097540;28;20032;-74
2023/04/27 02:23:53;;;;;;;5.80;3.00;;;6.30;81.30;;;;;;5115212;28;20032;-74
2023/04/27 02:26:21;;;;;;;4.45;2.40;;;6.30;81.40;;;;;;5115299;28;20039;-74
2023/04/27 02:28:47;;;;;;;5.60;2.53;;;6.30;81.40;;;;;;5114085;28;20058;-74
2023/04/27 02:31:13;;;;;;;5.97;2.63;;;6.20;81.20;;;;;;5114969;28;20057;-73
2023/04/27 02:33:40;;;;;;;6.28;2.85;;;6.20;81.40;;;;;;5114933;28;20022;-74
2023/04/27 02:36:07;;;;;;;6.25;2.80;;;6.20;81.60;;;;;;5114981;28;20013;-74
2023/04/27 02:38:32;;;;;;;7.10;2.83;;;6.10;81.40;;;;;;5113947;28;20032;-73
2023/04/27 02:40:58;;;;;;;7.38;3.15;;;6.00;81.60;;;;;;5114884;28;20043;-74
2023/04/27 02:43:24;;;;;;;7.15;3.35;;;6.00;81.80;;;;;;5114809;28;20050;-73
2023/04/27 02:45:49;;;;;;;6.60;3.35;;;6.00;81.80;;;;;;5114762;28;20032;-74
2023/04/27 02:48:15;;;;;;;6.20;2.72;;;6.00;81.80;;;;;;5114737;28;20024;-74
2023/04/27 02:50:41;;;;;;;9.38;4.03;;;6.00;81.80;;;;;;5113525;28;20054;-74
2023/04/27 02:53:08;;;;;;;7.45;3.25;;;6.00;81.70;;;;;;5114640;28;20031;-74
2023/04/27 02:55:33;;;;;;;7.60;3.53;;;6.00;81.70;;;;;;5113562;28;20050;-74
2023/04/27 02:57:59;;;;;;;7.00;3.17;;;5.90;81.70;;;;;;5114519;28;20088;-74
2023/04/27 03:00:25;;;;;;;5.85;2.90;;;5.90;81.80;;;;;;5113572;28;20099;-74
2023/04/27 03:02:51;;;;;;;11.43;3.50;;;5.90;81.90;;;;;;5114482;28;20074;-73
2023/04/27 03:05:17;;;;;;;7.32;3.42;;;5.90;81.80;;;;;;5114391;28;20016;-73
2023/04/27 03:07:43;;;;;;;8.88;3.25;;;5.90;81.80;;;;;;5113945;28;20020;-74
2023/04/27 03:10:09;;;;;;;7.05;3.03;;;6.00;82.20;;;;;;5114041;28;20046;-74
2023/04/27 03:12:35;;;;;;;6.85;3.30;;;5.90;82.30;;;;;;5114198;28;20103;-73
2023/04/27 03:15:00;;;;;;;8.02;2.97;;;5.90;82.80;;;;;;5114241;28;20017;-74
2023/04/27 03:17:26;;;;;;;7.80;3.20;;;5.90;82.70;;;;;;5114195;28;20396;-73
2023/04/27 03:19:52;;;;;;;6.35;3.08;;;5.90;82.70;;;;;;5114082;28;20020;-74
2023/04/27 03:22:18;;;;;;;5.47;2.63;;;5.90;82.60;;;;;;5114081;28;20032;-73
2023/04/27 03:24:44;;;;;;;6.68;3.05;;;5.80;82.30;;;;;;5114132;28;20091;-73
2023/04/27 03:27:09;;;;;;;9.52;3.42;;;5.70;82.40;;;;;;5113036;28;20035;-73
2023/04/27 03:29:35;;;;;;;5.38;2.80;;;5.70;82.70;;;;;;5114015;28;20035;-74
2023/04/27 03:32:02;;;;;;;7.60;3.47;;;5.70;82.70;;;;;;5112859;28;20032;-73
2023/04/27 03:34:28;;;;;;;5.95;2.80;;;5.60;82.70;;;;;;5113877;28;20181;-74
2023/04/27 03:36:54;;;;;;;10.93;3.38;;;5.60;82.70;;;;;;5112857;28;20028;-73
2023/04/27 03:39:20;;;;;;;7.93;3.38;;;5.60;82.50;;;;;;5113961;28;20031;-73
2023/04/27 03:41:45;;;;;;;8.65;3.22;;;5.60;82.40;;;;;;5079206;28;20028;-73
2023/04/27 03:44:11;;;;;;;8.98;3.72;;;5.70;82.40;;;;;;5112868;28;20024;-73
2023/04/27 03:46:37;;;;;;;7.60;3.33;;;5.60;82.40;;;;;;5112839;28;20093;-73
2023/04/27 03:49:02;;;;;;;5.95;3.15;;;5.70;82.50;;;;;;5113663;28;20043;-74
2023/04/27 03:51:31;;;;;;;6.53;3.05;;;5.60;82.30;;;;;;5113579;28;20111;-73
2023/04/27 03:53:57;;;;;;;8.57;3.67;;;5.60;82.20;;;;;;5113637;28;20016;-73
2023/04/27 03:56:22;;;;;;;6.03;2.90;;;5.60;82.50;;;;;;5113540;28;20024;-73
2023/04/27 03:58:48;;;;;;;8.63;3.53;;;5.40;82.80;;;;;;5112627;28;20202;-73
2023/04/27 04:01:15;;;;;;;8.18;3.13;;;5.40;83.20;;;;;;5113492;28;20032;-73
2023/04/27 04:03:41;;;;;;;8.90;3.38;;;5.40;83.20;;;;;;5113514;28;20023;-73
2023/04/27 04:06:07;;;;;;;8.52;3.17;;;5.50;83.10;;;;;;5113506;28;20055;-73
2023/04/27 04:08:33;;;;;;;7.32;3.28;;;5.50;83.10;;;;;;5113565;28;20024;-73
2023/04/27 04:10:59;;;;;;;6.78;2.88;;;5.50;83.10;;;;;;5112295;28;20132;-74
2023/04/27 04:13:25;;;;;;;8.02;3.70;;;5.50;83.00;;;;;;5113429;28;20016;-73
2023/04/27 04:16:03;;;;;;;6.20;3.05;;;5.50;83.00;;;;;;5113376;28;20038;-73
2023/04/27 04:18:29;;;;;;;8.75;3.55;;;5.50;83.10;;;;;;5113535;28;20091;-73
2023/04/27 04:20:55;;;;;;;9.43;3.45;;;5.50;83.40;;;;;;5116491;28;20024;-73
2023/04/27 04:23:20;;;;;;;7.15;3.50;;;5.50;83.50;;;;;;5116718;28;20051;-73
2023/04/27 04:25:49;;;;;;;9.20;3.45;;;5.40;84.40;;;;;;5117494;28;20028;-73
2023/04/27 04:28:15;;;;;;;5.28;3.03;;;5.30;83.90;;;;;;5100047;28;20023;-73
2023/04/27 04:30:42;;;;;;;6.85;3.30;;;5.30;84.10;;;;;;5117350;28;20084;-73
2023/04/27 04:33:08;;;;;;;7.18;3.17;;;5.30;84.20;;;;;;5116330;28;20020;-73
2023/04/27 04:35:36;;;;;;;9.00;3.33;;;5.30;84.30;;;;;;5099418;28;20047;-74
2023/04/27 04:38:02;;;;;;;8.25;2.95;;;5.30;84.10;;;;;;5117218;28;20020;-73
2023/04/27 04:40:27;;;;;;;7.97;3.08;;;5.40;84.00;;;;;;5116313;28;20030;-73
2023/04/27 04:42:53;;;;;;;11.98;4.00;;;5.40;83.90;;;;;;5099208;28;20525;-73
2023/04/27 04:45:19;;;;;;;7.85;3.90;;;5.40;83.90;;;;;;5117128;28;20031;-73
2023/04/27 04:47:44;;;;;;;9.43;3.90;;;5.40;83.80;;;;;;5117221;28;20035;-73
2023/04/27 04:50:10;;;;;;;8.48;3.85;;;5.40;83.70;;;;;;5099083;28;20016;-73
2023/04/27 04:52:36;;;;;;;8.10;3.72;;;5.50;84.00;;;;;;5116943;28;20024;-73
2023/04/27 04:55:02;;;;;;;6.65;3.72;;;5.40;84.00;;;;;;5115976;28;20083;-73
2023/04/27 04:57:29;;;;;;;8.23;3.83;;;5.40;84.20;;;;;;5115951;28;20026;-73
2023/04/27 04:59:54;;;;;;;9.73;3.72;;;5.50;84.40;;;;;;5116857;28;20031;-73
2023/04/27 05:02:20;;;;;;;7.75;3.90;;;5.50;84.40;;;;;;5116789;28;20055;-74
2023/04/27 05:04:46;;;;;;;10.02;3.60;;;5.50;84.30;;;;;;5115825;28;20032;-73
2023/04/27 05:07:12;;;;;;;7.68;3.42;;;5.50;84.30;;;;;;5116525;28;20035;-73
2023/04/27 05:09:39;;;;;;;9.27;3.70;;;5.50;84.30;;;;;;5115688;28;20048;-74
2023/04/27 05:12:05;;;;;;;10.13;3.90;;;5.50;84.50;;;;;;5116225;28;20040;-73
2023/04/27 05:14:31;;;;;;;10.02;3.92;;;5.60;84.60;;;;;;5116571;28;20027;-73
2023/04/27 05:16:57;;;;;;;7.40;3.50;;;5.60;84.90;;;;;;5115555;28;20043;-73
2023/04/27 05:19:24;;;;;;;8.55;3.92;;;5.60;84.90;;;;;;5115509;28;20028;-73
2023/04/27 05:21:49;;;;;;;9.13;4.18;;;5.60;85.30;;;;;;5098779;28;20096;-73
2023/04/27 05:24:15;;;;;;;9.05;3.83;;;5.60;85.30;;;;;;5116401;28;20028;-73
2023/04/27 05:26:42;;;;;;;10.82;4.25;;;5.70;85.60;;;;;;5116342;28;20051;-73
2023/04/27 05:29:07;;;;;;;12.45;3.95;;;5.70;86.00;;;;;;5098402;28;20035;-73
2023/04/27 05:31:33;;;;;;;10.85;3.65;;;5.70;86.10;;;;;;5097955;28;20032;-74
2023/04/27 05:33:59;;;;;;;10.35;4.53;;;5.70;86.40;;;;;;5116160;28;20035;-74
2023/04/27 05:36:25;;;;;;;11.98;4.60;;;5.70;86.60;;;;;;5116265;28;20039;-74
2023/04/27 05:38:51;;;;;;;9.23;4.30;;;5.80;86.80;;;;;;5116126;28;20020;-73
2023/04/27 05:41:17;;;;;;;11.60;4.18;;;5.80;86.90;;;;;;5116025;28;20051;-73
2023/04/27 05:43:42;;;;;;;13.23;4.35;;;5.80;87.10;;;;;;5115093;28;20016;-73
2023/04/27 05:46:12;;;;;;;8.38;4.35;;;5.80;87.20;;;;;;5116005;28;20060;-73
2023/04/27 05:48:37;;;;;;;10.15;4.15;;;5.80;87.90;;;;;;5098651;28;20028;-73
2023/04/27 05:51:03;;;;;;;9.10;4.45;;;5.90;87.90;;;;;;5114837;28;20028;-73
2023/04/27 05:53:29;;;;;;;10.45;4.25;;;5.90;87.80;;;;;;5115726;28;20084;-73
2023/04/27 05:55:59;;;;;;;9.52;4.43;;;5.90;88.00;;;;;;5115744;28;20028;-73
2023/04/27 05:58:25;;;;;;;11.90;5.10;;;6.00;88.20;;;;;;5115740;28;20017;-73
2023/04/27 06:00:51;;;;;;;11.75;4.10;;;6.00;88.20;;;;;;5114630;28;20028;-73
2023/04/27 06:03:17;;;;;;;13.85;5.28;;;6.10;88.30;;;;;;5115672;28;20088;-73
2023/04/27 06:05:43;;;;;;;12.70;4.78;;;6.10;88.20;;;;;;5114626;28;20400;-73
2023/04/27 06:08:08;;;;;;;13.20;6.13;;;6.10;88.20;;;;;;5114613;28;20032;-73
2023/04/27 06:10:34;;;;;;;11.18;4.90;;;6.10;90.30;;;;;;5114180;28;20081;-73
2023/04/27 06:13:00;;;;;;;12.98;5.57;;;6.20;90.00;;;;;;5114488;28;20050;-73
2023/04/27 06:15:25;;;;;;;17.02;5.38;;;6.20;89.60;;;;;;5115560;28;20021;-73
2023/04/27 06:17:51;;;;;;;12.50;5.38;;;6.30;89.60;;;;;;5115366;28;20029;-73
2023/04/27 06:20:17;;;;;;;12.55;5.20;;;6.30;89.80;;;;;;5115294;28;20039;-73
2023/04/27 06:22:45;;;;;;;10.90;5.53;;;6.40;89.80;;;;;;5114384;28;20036;-74
2023/04/27 06:25:11;;;;;;;10.40;4.88;;;6.40;90.00;;;;;;5115247;28;20028;-74
2023/04/27 06:27:36;;;;;;;10.00;4.38;;;6.40;89.90;;;;;;5097373;28;20032;-73
2023/04/27 06:30:03;;;;;;;9.35;4.40;;;6.50;90.20;;;;;;5114106;28;20028;-74
2023/04/27 06:32:29;;;;;;;10.73;3.90;;;6.50;90.20;;;;;;5115097;28;20035;-74
2023/04/27 06:34:55;;;;;;;11.90;4.75;;;6.60;90.10;;;;;;5114025;28;20028;-73
2023/04/27 06:37:21;;;;;;;10.68;3.80;;;6.70;90.10;;;;;;5114969;28;20017;-73
2023/04/27 06:39:46;;;;;;;5.97;3.30;;;6.70;90.50;;;;;;5114934;28;20024;-75
2023/04/27 06:42:12;;;;;;;8.30;4.50;;;6.80;90.10;;;;;;5114155;28;20031;-74
2023/04/27 06:44:38;;;;;;;6.22;3.20;;;6.90;89.90;;;;;;5114866;28;20083;-75
2023/04/27 06:47:04;;;;;;;6.82;2.78;;;7.00;88.50;;;;;;5114774;28;20054;-74
2023/04/27 06:49:30;;;;;;;6.25;2.70;;;7.10;87.50;;;;;;5113819;28;20024;-74
2023/04/27 06:51:55;;;;;;;6.88;2.88;;;7.20;87.60;;;;;;5114652;28;20036;-73
2023/04/27 06:54:21;;;;;;;8.10;3.10;;;7.20;86.50;;;;;;5114630;28;20024;-74
2023/04/27 06:56:47;;;;;;;7.80;3.28;;;7.30;85.90;;;;;;5114561;28;20028;-73
2023/04/27 06:59:12;;;;;;;5.88;3.05;;;7.40;85.70;;;;;;5113580;28;20032;-74
2023/04/27 07:01:38;;;;;;;7.00;3.67;;;7.50;86.00;;;;;;5113436;28;20054;-74
2023/04/27 07:04:04;;;;;;;7.72;2.78;;;7.60;84.40;;;;;;5113503;28;20028;-74
2023/04/27 07:06:31;;;;;;;6.35;3.50;;;7.60;83.10;;;;;;5114434;28;20081;-73
2023/04/27 07:08:57;;;;;;;9.95;3.47;;;7.70;83.30;;;;;;5113420;28;20027;-72
2023/04/27 07:11:23;;;;;;;6.40;2.67;;;7.80;82.10;;;;;;5114223;28;20064;-74
2023/04/27 07:13:49;;;;;;;5.95;2.85;;;7.90;83.50;;;;;;5114322;28;20046;-74
2023/04/27 07:16:15;;;;;;;7.78;3.28;;;7.90;81.70;;;;;;5114271;28;20032;-74
2023/04/27 07:18:41;;;;;;;8.23;2.40;;;8.00;81.50;;;;;;5114230;28;20027;-73
2023/04/27 07:21:07;;;;;;;4.75;2.08;;;8.00;81.60;;;;;;5114007;28;20032;-74
2023/04/27 07:23:33;;;;;;;5.57;2.65;;;8.00;82.20;;;;;;5113180;28;20096;-73
2023/04/27 07:25:59;;;;;;;6.78;2.92;;;8.00;82.50;;;;;;5113309;28;20043;-73
2023/04/27 07:28:24;;;;;;;5.57;2.63;;;8.20;80.70;;;;;;5114007;28;20043;-73
2023/04/27 07:30:50;;;;;;;7.63;3.10;;;8.30;81.50;;;;;;5113899;28;20062;-73
2023/04/27 07:33:16;;;;;;;7.70;2.67;;;8.30;80.30;;;;;;5113904;28;20053;-74
2023/04/27 07:35:42;;;;;;;6.05;2.78;;;8.40;80.20;;;;;;5113951;28;20031;-74
2023/04/27 07:38:08;;;;;;;7.35;2.95;;;8.50;80.50;;;;;;5113005;28;20054;-74
2023/04/27 07:40:33;;;;;;;4.40;2.47;;;8.60;80.30;;;;;;5113835;28;20023;-74
2023/04/27 07:42:59;;;;;;;6.63;2.58;;;8.60;78.40;;;;;;5113773;28;20028;-74
2023/04/27 07:45:30;;;;;;;5.68;2.65;;;8.70;80.20;;;;;;5113725;28;20031;-74
2023/04/27 07:47:58;;;;;;;7.32;2.85;;;8.70;78.50;;;;;;5112805;28;20039;-74
2023/04/27 07:50:28;;;;;;;5.32;2.63;;;8.70;80.40;;;;;;5113685;28;20023;-73
2023/04/27 07:52:55;;;;;;;4.70;2.58;;;8.70;77.60;;;;;;5113870;28;20028;-74
2023/04/27 07:55:22;;;;;;;5.68;2.38;;;8.80;78.10;;;;;;5113620;28;20020;-74
2023/04/27 07:57:56;;;;;;;5.78;2.63;;;8.80;78.80;;;;;;5112705;28;20029;-74
2023/04/27 08:00:24;;;;;;;5.32;2.40;;;8.90;78.40;;;;;;5113761;28;20027;-74
2023/04/27 08:02:53;;;;;;;5.45;2.80;;;8.90;76.40;;;;;;5113573;28;20024;-74
2023/04/27 08:05:19;;;;;;;6.38;3.92;;;9.00;78.70;;;;;;5113540;28;20051;-74
2023/04/27 08:07:44;;;;;;;4.60;2.67;;;9.10;78.00;;;;;;5095672;28;20024;-74
2023/04/27 08:10:10;;;;;;;7.20;3.08;;;9.10;75.80;;;;;;5113473;28;20063;-74
2023/04/27 08:12:36;;;;;;;5.15;2.88;;;9.20;77.50;;;;;;5113280;28;20078;-74
2023/04/27 08:15:01;;;;;;;4.72;2.85;;;9.30;76.40;;;;;;5113562;28;20080;-74
2023/04/27 08:17:27;;;;;;;8.60;3.25;;;9.40;75.70;;;;;;5113376;28;20020;-74
2023/04/27 08:19:52;;;;;;;5.90;2.92;;;9.40;77.10;;;;;;5113369;28;20031;-74
2023/04/27 08:22:18;;;;;;;3.85;1.73;;;9.40;78.30;;;;;;5112407;28;20030;-74
2023/04/27 08:24:44;;;;;;;9.07;2.80;;;9.40;75.40;;;;;;5113361;28;20084;-74
2023/04/27 08:27:10;;;;;;;8.45;3.30;;;9.40;76.20;;;;;;5095383;28;20024;-73
2023/04/27 08:29:35;;;;;;;5.20;2.67;;;9.50;74.00;;;;;;5113329;28;20035;-74
2023/04/27 08:32:03;;;;;;;7.13;3.30;;;9.50;73.40;;;;;;5113159;28;20046;-75
2023/04/27 08:34:29;;;;;;;10.45;3.13;;;9.60;73.00;;;;;;5112121;28;20016;-74
2023/04/27 08:36:55;;;;;;;5.57;3.28;;;9.60;73.20;;;;;;5113204;28;20021;-73
2023/04/27 08:39:22;;;;;;;5.07;2.55;;;9.60;73.50;;;;;;5113161;28;20012;-74
2023/04/27 08:41:48;;;;;;;4.85;2.92;;;9.70;72.80;;;;;;5113152;28;20038;-74
2023/04/27 08:44:13;;;;;;;6.65;3.22;;;9.80;73.50;;;;;;5112184;28;20043;-74
2023/04/27 08:46:40;;;;;;;5.53;3.17;;;9.90;73.70;;;;;;5113113;28;20036;-73
2023/04/27 08:49:08;;;;;;;7.07;2.42;;;10.00;72.70;;;;;;5113113;28;20028;-74
2023/04/27 08:51:34;;;;;;;5.15;2.70;;;10.00;72.50;;;;;;5113026;28;20032;-74
2023/04/27 08:54:00;;;;;;;5.18;2.80;;;10.10;68.60;;;;;;5113010;28;20042;-73
2023/04/27 08:56:28;;;;;;;6.35;3.30;;;10.20;70.50;;;;;;5113021;28;20027;-74
2023/04/27 08:58:55;;;;;;;5.72;2.50;;;10.20;70.60;;;;;;5113044;28;20084;-73
2023/04/27 09:01:22;;;;;;;5.25;2.70;;;10.40;70.90;;;;;;5113032;28;20027;-74
2023/04/27 09:03:48;;;;;;;5.90;2.55;;;10.40;69.50;;;;;;5112998;28;20028;-73
2023/04/27 09:06:14;;;;;;;5.15;2.28;;;10.30;69.50;;;;;;5114646;28;20028;-73
2023/04/27 09:08:47;;;;;;;6.65;3.15;;;10.40;70.00;;;;;;5116744;28;20028;-74
2023/04/27 09:11:15;;;;;;;5.45;2.78;;;10.50;69.30;;;;;;5115535;28;20044;-73
2023/04/27 09:13:44;;;;;;;7.05;2.42;;;10.50;68.60;;;;;;5116591;28;20040;-74
2023/04/27 09:16:13;;;;;;;4.45;2.42;;;10.60;71.80;;;;;;5098393;28;20043;-74
2023/04/27 09:18:41;;;;;;;5.35;2.53;;;10.70;69.90;;;;;;5116583;28;20024;-73
2023/04/27 09:21:07;;;;;;;6.22;3.28;;;10.80;69.40;;;;;;5115374;28;20039;-74
2023/04/27 09:23:35;;;;;;;6.63;3.10;;;10.90;70.40;;;;;;5115351;28;20028;-74
2023/04/27 09:26:08;;;;;;;6.07;2.65;;;11.10;70.90;;;;;;5115501;28;20048;-74
2023/04/27 09:28:46;;;;;;;6.00;2.67;;;11.10;67.70;;;;;;5115345;28;20024;-74
2023/04/27 09:31:12;;;;;;;4.93;2.58;;;11.10;67.70;;;;;;5115564;28;20024;-73
2023/04/27 09:33:42;;;;;;;6.07;3.05;;;11.10;64.70;;;;;;5115176;28;20020;-74
2023/04/27 09:36:08;;;;;;;5.80;2.53;;;11.00;67.60;;;;;;5116231;28;20024;-73
2023/04/27 09:38:36;;;;;;;6.93;2.67;;;11.10;65.80;;;;;;5116077;28;20083;-74
2023/04/27 09:41:02;;;;;;;7.55;2.80;;;11.20;66.80;;;;;;5116106;28;20032;-74
2023/04/27 09:43:35;;;;;;;6.07;3.03;;;11.40;63.50;;;;;;5115942;28;20047;-74
2023/04/27 09:46:04;;;;;;;6.50;2.80;;;11.40;64.40;;;;;;5093615;28;20071;-74
2023/04/27 09:48:32;;;;;;;6.03;2.38;;;11.40;63.50;;;;;;5076341;28;20036;-74
2023/04/27 09:50:59;;;;;;;3.72;2.45;;;11.40;62.80;;;;;;5077608;28;20147;-74
2023/04/27 09:53:56;;;;;;;5.38;2.70;;;11.30;64.60;;;;;;5093824;28;20029;-73
2023/04/27 09:56:42;;;;;;;6.32;3.00;;;11.40;65.20;;;;;;5092180;28;20032;-74
2023/04/27 09:59:40;;;;;;;5.95;3.15;;;11.40;63.60;;;;;;5093823;28;20043;-74
2023/04/27 10:02:16;;;;;;;6.03;2.70;;;11.70;63.30;;;;;;5024962;28;20036;-74
2023/04/27 10:05:23;;;;;;;4.65;2.60;;;11.70;64.10;;;;;;5093021;28;20021;-74
2023/04/27 10:07:57;;;;;;;5.20;2.92;;;11.90;65.00;;;;;;5093700;28;20058;-74
2023/04/27 10:10:22;;;;;;;6.47;2.63;;;11.90;60.50;;;;;;5093457;28;20025;-74
2023/04/27 10:13:00;;;;;;;4.22;2.47;;;12.00;59.20;;;;;;5093233;28;20049;-74
2023/04/27 10:15:28;;;;;;;5.80;2.78;;;12.10;60.30;;;;;;5093283;28;20060;-74
2023/04/27 10:18:06;;;;;;;6.43;3.05;;;12.00;54.10;;;;;;5111460;28;20035;-74
2023/04/27 10:20:36;;;;;;;7.43;2.78;;;12.00;57.50;;;;;;5115302;28;20036;-74
2023/04/27 10:23:02;;;;;;;5.90;2.55;;;12.20;58.10;;;;;;5115325;28;20020;-74
2023/04/27 10:25:40;;;;;;;5.82;3.30;;;12.20;58.50;;;;;;5115215;28;20088;-74
2023/04/27 10:28:16;;;;;;;5.78;3.22;;;12.40;57.90;;;;;;5115163;28;20035;-74
2023/04/27 10:30:47;;;;;;;5.03;2.53;;;12.50;58.10;;;;;;5114902;28;20020;-73
2023/04/27 10:33:21;;;;;;;5.85;3.00;;;12.40;58.30;;;;;;5113919;28;20016;-74
2023/04/27 10:35:59;;;;;;;4.70;3.08;;;12.40;58.80;;;;;;5112740;28;20032;-74
2023/04/27 10:38:31;;;;;;;5.93;3.30;;;12.40;56.90;;;;;;5114889;28;20027;-74
2023/04/27 10:41:09;;;;;;;5.82;3.40;;;12.40;58.70;;;;;;5112690;28;20098;-74
2023/04/27 10:43:45;;;;;;;5.72;3.45;;;12.50;60.30;;;;;;5114963;28;20055;-74
2023/04/27 10:46:12;;;;;;;7.75;3.65;;;12.40;55.30;;;;;;5114807;28;20025;-74
2023/04/27 10:48:39;;;;;;;7.15;3.17;;;12.40;55.50;;;;;;5114700;28;20051;-74
2023/04/27 10:51:09;;;;;;;6.95;3.30;;;12.50;55.70;;;;;;5113150;28;20032;-73
2023/04/27 10:53:35;;;;;;;6.90;3.08;;;12.50;56.50;;;;;;5114605;28;20041;-74
2023/04/27 10:56:02;;;;;;;6.25;3.15;;;12.60;57.80;;;;;;5114616;28;20024;-74
2023/04/27 10:58:34;;;;;;;5.65;2.85;;;12.90;58.00;;;;;;5114562;28;20058;-74
2023/04/27 11:01:00;;;;;;;6.82;2.55;;;13.10;57.60;;;;;;5114550;28;20066;-74
2023/04/27 11:03:25;;;;;;;6.65;3.28;;;13.20;52.70;;;;;;5114452;28;20024;-74
2023/04/27 11:06:04;;;;;;;5.82;2.83;;;13.10;52.30;;;;;;5114460;28;20039;-74
2023/04/27 11:08:44;;;;;;;6.45;3.08;;;13.10;51.70;;;;;;5113678;28;20058;-74
2023/04/27 11:11:14;;;;;;;5.65;3.17;;;13.20;55.20;;;;;;5113019;28;20074;-74
2023/04/27 11:13:43;;;;;;;6.05;3.60;;;13.40;55.30;;;;;;5114299;28;20020;-74
2023/04/27 11:16:12;;;;;;;6.05;2.95;;;13.40;51.40;;;;;;5114382;28;20040;-74
2023/04/27 11:18:41;;;;;;;4.93;2.78;;;13.50;52.70;;;;;;5113134;28;20107;-74
2023/04/27 11:21:14;;;;;;;5.00;3.00;;;13.60;54.70;;;;;;5096016;28;20044;-74
2023/04/27 11:23:41;;;;;;;6.43;3.63;;;13.80;53.80;;;;;;5114138;28;20020;-75
2023/04/27 11:26:16;;;;;;;6.00;3.33;;;13.90;53.10;;;;;;5114163;28;20044;-74
2023/04/27 11:28:43;;;;;;;5.55;3.30;;;14.00;51.40;;;;;;5113848;28;20036;-74
2023/04/27 11:31:10;;;;;;;6.88;3.35;;;14.00;48.50;;;;;;5112996;28;20046;-74
2023/04/27 11:33:35;;;;;;;5.78;2.95;;;14.10;50.60;;;;;;5113832;28;20027;-74
2023/04/27 11:36:02;;;;;;;6.72;3.40;;;14.20;50.70;;;;;;5113993;28;20016;-75
2023/04/27 11:38:32;;;;;;;4.97;3.05;;;14.20;47.70;;;;;;5111545;28;20033;-74
2023/04/27 11:41:00;;;;;;;4.82;3.03;;;14.20;49.00;;;;;;5113935;28;20016;-74
2023/04/27 11:43:27;;;;;;;6.55;3.75;;;14.30;49.80;;;;;;5113841;28;20404;-75
2023/04/27 11:45:53;;;;;;;6.55;3.65;;;14.40;47.00;;;;;;5113615;28;20035;-73
2023/04/27 11:48:21;;;;;;;7.18;2.88;;;14.20;46.70;;;;;;5112732;28;20093;-75
2023/04/27 11:50:48;;;;;;;6.68;3.95;;;14.10;48.80;;;;;;5113714;28;20031;-74
2023/04/27 11:53:14;;;;;;;6.35;3.40;;;14.00;46.20;;;;;;5112554;28;20461;-74
2023/04/27 11:55:40;;;;;;;6.07;3.67;;;13.90;46.10;;;;;;5113581;28;20027;-74
2023/04/27 11:58:13;;;;;;;7.18;4.10;;;14.00;49.40;;;;;;5113604;28;20020;-74
2023/04/27 12:00:39;;;;;;;5.70;3.40;;;14.20;46.10;;;;;;5112728;28;20028;-74
2023/04/27 12:03:04;;;;;;;6.20;3.30;;;14.30;48.20;;;;;;5112570;28;20111;-74
2023/04/27 12:05:30;;;;;;;5.90;3.30;;;14.40;48.40;;;;;;5095603;28;20088;-74
2023/04/27 12:07:56;;;;;;;7.85;3.65;;;14.50;47.70;;;;;;5113445;28;20028;-74
2023/04/27 12:10:21;;;;;;;5.00;3.90;;;14.50;47.30;;;;;;5112460;28;20032;-74
2023/04/27 12:12:47;;;;;;;8.45;4.10;;;14.70;48.50;;;;;;5112331;28;20059;-74
2023/04/27 12:15:12;;;;;;;6.30;3.60;;;14.70;48.40;;;;;;5113448;28;20028;-74
2023/04/27 12:17:38;;;;;;;6.47;3.92;;;14.80;48.60;;;;;;5113375;28;20047;-74
2023/04/27 12:20:06;;;;;;;6.78;3.72;;;14.90;48.40;;;;;;5113324;28;20039;-74
2023/04/27 12:22:32;;;;;;;5.95;3.75;;;14.90;47.60;;;;;;5113506;28;20035;-74
2023/04/27 12:24:57;;;;;;;7.68;4.72;;;15.00;47.50;;;;;;5113408;28;20026;-74
2023/04/27 12:27:23;;;;;;;9.35;4.22;;;14.90;44.10;;;;;;5112242;28;20032;-75
2023/04/27 12:29:49;;;;;;;8.98;4.22;;;14.70;45.80;;;;;;5113322;28;20032;-74
2023/04/27 12:32:15;;;;;;;6.55;3.97;;;14.80;47.90;;;;;;5113177;28;20052;-74
2023/04/27 12:34:41;;;;;;;8.48;4.40;;;14.80;46.00;;;;;;5112057;28;20032;-74
2023/04/27 12:37:07;;;;;;;5.30;3.75;;;14.70;45.20;;;;;;5112328;28;20043;-74
2023/04/27 12:39:33;;;;;;;6.10;3.25;;;14.80;46.40;;;;;;5113185;28;20024;-74
2023/04/27 12:41:58;;;;;;;5.90;3.35;;;15.00;46.20;;;;;;5116262;28;20025;-74
2023/04/27 12:44:24;;;;;;;4.75;2.97;;;15.20;45.00;;;;;;5117216;28;20028;-75
2023/04/27 12:46:50;;;;;;;6.55;3.72;;;15.40;45.30;;;;;;5117290;28;20480;-75
2023/04/27 12:49:16;;;;;;;5.45;3.10;;;15.50;44.90;;;;;;5117124;28;20024;-74
2023/04/27 12:51:44;;;;;;;6.65;3.40;;;15.60;45.90;;;;;;5115915;28;20054;-75